Time;durP1;ratioP1;P1;durP2;ratioP2;P2;SDS_P1;SDS_P2;PMS_P1;PMS_P2;Temp;Humidity;BMP_temperature;BMP_pressure;BME280_temperature;BME280_humidity;BME280_pressure;Samples;Min_cycle;Max_cycle;Signal;HPM_P1;HPM_P2
2022/05/05 00:01:20;;;;;;;;;18.75;18.25;;;;;15.65;62.84;101769.13;5046122;28;46033;-60
2022/05/05 00:03:45;;;;;;;;;27.50;20.50;;;;;15.61;63.09;101764.88;5047337;28;45287;-61
2022/05/05 00:06:11;;;;;;;;;18.25;17.75;;;;;15.55;62.55;101766.81;5045710;28;45323;-61
2022/05/05 00:08:36;;;;;;;;;22.75;18.25;;;;;15.49;62.97;101763.50;5046512;28;45185;-61
2022/05/05 00:16:32;;;;;;;;;21.25;18.00;;;;;15.31;64.03;101766.69;5046530;28;45398;-61
2022/05/05 00:18:58;;;;;;;;;22.00;19.50;;;;;15.22;64.35;101774.81;5045612;28;46271;-60
2022/05/05 00:21:23;;;;;;;;;16.75;15.25;;;;;15.19;63.98;101772.28;5047254;28;45478;-61
2022/05/05 00:23:48;;;;;;;;;21.50;17.50;;;;;15.15;64.91;101768.91;5047174;28;45302;-61
2022/05/05 00:26:14;;;;;;;;;20.75;18.75;;;;;15.11;65.38;101777.75;5049908;28;45368;-61
2022/05/05 00:28:39;;;;;;;;;19.00;17.50;;;;;15.05;64.62;101764.84;5048828;28;46660;-62
2022/05/05 00:31:05;;;;;;;;;17.75;15.75;;;;;15.10;64.19;101775.19;5049835;28;45679;-61
2022/05/05 00:33:30;;;;;;;;;18.00;13.50;;;;;15.11;64.16;101769.91;5051002;28;45498;-61
2022/05/05 00:35:56;;;;;;;;;21.25;18.25;;;;;15.12;64.36;101770.75;5051513;28;45470;-61
2022/05/05 00:38:21;;;;;;;;;18.00;14.25;;;;;15.11;64.06;101776.91;5047010;28;46564;-60
2022/05/05 00:40:47;;;;;;;;;20.00;15.50;;;;;15.08;63.66;101767.38;5050951;28;45520;-60
2022/05/05 00:43:12;;;;;;;;;16.50;16.00;;;;;15.06;63.68;101777.03;5052405;28;45477;-60
2022/05/05 00:45:38;;;;;;;;;18.00;13.75;;;;;15.00;64.03;101771.97;5039934;28;45339;-61
2022/05/05 00:48:07;;;;;;;;;15.50;13.75;;;;;14.96;64.78;101770.34;5036030;28;48027;-61
2022/05/05 00:50:34;;;;;;;;;18.00;15.50;;;;;14.90;64.50;101781.84;5043201;28;45821;-61
2022/05/05 00:53:00;;;;;;;;;17.00;13.25;;;;;14.85;65.18;101775.03;5044646;28;45496;-60
2022/05/05 00:55:27;;;;;;;;;19.00;16.25;;;;;14.79;65.76;101781.28;5038967;28;45558;-61
2022/05/05 00:57:52;;;;;;;;;15.00;13.25;;;;;14.77;65.24;101777.88;5036707;28;45484;-61
2022/05/05 01:00:18;;;;;;;;;21.75;16.75;;;;;14.77;65.67;101775.25;5039039;28;45467;-59
2022/05/05 01:02:44;;;;;;;;;14.00;13.75;;;;;14.74;65.21;101777.09;5037800;28;46709;-59
2022/05/05 01:05:09;;;;;;;;;15.50;13.00;;;;;14.73;65.81;101771.00;5039346;28;45435;-59
2022/05/05 01:07:35;;;;;;;;;19.75;18.00;;;;;14.69;66.01;101774.63;5040996;28;46431;-60
2022/05/05 01:10:00;;;;;;;;;18.00;14.75;;;;;14.69;65.85;101779.84;5037393;28;45475;-60
2022/05/05 01:12:29;;;;;;;;;13.00;12.00;;;;;14.66;65.16;101779.94;5038434;28;46458;-60
2022/05/05 01:15:05;;;;;;;;;14.25;13.00;;;;;14.64;65.98;101781.75;5038928;28;45400;-60
2022/05/05 01:17:30;;;;;;;;;15.00;14.00;;;;;14.56;65.94;101784.56;5041116;28;46337;-59
2022/05/05 01:19:55;;;;;;;;;11.50;11.50;;;;;14.49;65.60;101782.16;5045308;28;45381;-59
2022/05/05 01:22:21;;;;;;;;;10.00;10.00;;;;;14.45;65.70;101781.38;5041467;28;45347;-60
2022/05/05 01:30:15;;;;;;;;;9.25;9.00;;;;;14.36;65.78;101780.72;5044442;28;45323;-60
2022/05/05 01:32:40;;;;;;;;;13.50;9.50;;;;;14.31;65.65;101773.88;5050689;28;45303;-60
2022/05/05 01:35:06;;;;;;;;;15.75;11.25;;;;;14.35;65.57;101771.16;5042756;28;45427;-61
2022/05/05 01:37:31;;;;;;;;;12.00;10.25;;;;;14.29;65.82;101777.41;5039280;28;46274;-61
2022/05/05 01:39:57;;;;;;;;;11.75;11.25;;;;;14.24;65.82;101780.16;5040353;28;45386;-60
2022/05/05 01:42:22;;;;;;;;;11.00;11.00;;;;;14.19;66.59;101774.16;5040200;28;45632;-61
2022/05/05 01:44:48;;;;;;;;;12.25;7.75;;;;;14.15;65.48;101772.53;5039666;28;46337;-60
2022/05/05 01:47:14;;;;;;;;;12.75;10.75;;;;;14.16;65.75;101773.41;5038938;28;48672;-60
2022/05/05 01:49:39;;;;;;;;;11.25;10.50;;;;;14.16;65.76;101774.25;5040310;28;45433;-60
2022/05/05 01:52:09;;;;;;;;;13.25;10.75;;;;;14.13;65.75;101773.47;5040308;28;45501;-60
2022/05/05 01:54:34;;;;;;;;;12.00;12.00;;;;;14.07;67.23;101776.25;5037687;28;46129;-61
2022/05/05 01:56:59;;;;;;;;;13.00;11.75;;;;;13.99;66.69;101765.97;5040153;28;45356;-60
2022/05/05 01:59:25;;;;;;;;;13.00;11.25;;;;;13.95;66.80;101770.44;5040045;28;45355;-61
2022/05/05 02:01:50;;;;;;;;;11.75;9.75;;;;;13.96;67.46;101769.53;5040227;28;45308;-62
2022/05/05 02:04:16;;;;;;;;;15.00;11.75;;;;;13.96;66.61;101771.28;5040158;28;45347;-62
2022/05/05 02:06:41;;;;;;;;;10.25;6.50;;;;;13.99;66.38;101777.28;5040145;28;45438;-61
2022/05/05 02:09:06;;;;;;;;;12.75;10.00;;;;;14.00;66.48;101786.84;5039985;28;45296;-61
2022/05/05 02:11:32;;;;;;;;;11.00;8.25;;;;;13.94;66.91;101783.53;5040126;28;45319;-61
2022/05/05 02:13:57;;;;;;;;;14.00;10.75;;;;;13.87;66.78;101779.38;5040402;28;45334;-61
2022/05/05 02:16:22;;;;;;;;;11.75;10.50;;;;;13.88;66.32;101783.69;5039838;28;46164;-60
2022/05/05 02:18:48;;;;;;;;;12.00;9.00;;;;;13.88;66.60;101781.09;5049043;28;45460;-61
2022/05/05 02:21:13;;;;;;;;;11.00;10.00;;;;;13.87;66.56;101780.22;5049513;28;45248;-60
2022/05/05 02:23:39;;;;;;;;;11.25;11.25;;;;;13.87;66.55;101779.38;5047285;28;45379;-60
2022/05/05 02:26:05;;;;;;;;;10.00;10.00;;;;;13.84;66.50;101777.69;5050003;28;46837;-60
2022/05/05 02:28:31;;;;;;;;;16.25;12.00;;;;;13.82;66.28;101770.78;5048130;28;45236;-60
2022/05/05 02:30:57;;;;;;;;;14.25;12.00;;;;;13.81;66.96;101776.88;5049269;28;45341;-60
2022/05/05 02:33:22;;;;;;;;;12.00;9.00;;;;;13.78;67.22;101776.97;5046165;28;45814;-60
2022/05/05 02:38:42;;;;;;;;;13.50;11.25;;;;;13.77;66.44;101775.25;5042635;28;46314;-60
2022/05/05 02:38:46;;;;;;;;;12.50;11.00;;;;;13.74;66.58;101770.09;5040055;28;45162;-60
2022/05/05 02:41:11;;;;;;;;;15.50;14.50;;;;;13.72;66.53;101767.53;5040077;28;45145;-60
2022/05/05 02:43:37;;;;;;;;;17.25;12.50;;;;;13.70;66.83;101770.19;5043829;28;45345;-59
2022/05/05 02:46:02;;;;;;;;;20.75;16.50;;;;;13.64;67.87;101765.09;5039760;28;46185;-59
2022/05/05 02:48:28;;;;;;;;;23.00;14.25;;;;;13.62;67.73;101768.66;5040194;28;45464;-59
2022/05/05 02:50:53;;;;;;;;;9.50;6.50;;;;;13.59;67.31;101771.31;5040251;28;45495;-59
2022/05/05 02:56:02;;;;;;;;;18.25;16.00;;;;;13.57;67.81;101768.75;5039691;28;45520;-59
2022/05/05 02:58:29;;;;;;;;;21.25;14.50;;;;;13.51;68.07;101766.28;5039589;28;45249;-61
2022/05/05 03:00:54;;;;;;;;;13.75;13.00;;;;;13.49;68.05;101770.69;5039861;28;45294;-61
2022/05/05 03:03:20;;;;;;;;;17.75;13.00;;;;;13.48;68.08;101763.75;5039886;28;45245;-60
2022/05/05 03:05:46;;;;;;;;;15.00;13.50;;;;;13.44;68.17;101766.47;5039658;28;45521;-60
2022/05/05 03:08:12;;;;;;;;;18.00;14.25;;;;;13.43;68.29;101773.44;5039830;28;45804;-61
2022/05/05 03:10:40;;;;;;;;;17.00;13.00;;;;;13.44;68.71;101771.69;5040276;28;45372;-62
2022/05/05 03:13:06;;;;;;;;;19.00;16.75;;;;;13.43;68.36;101768.22;5039884;28;45308;-60
2022/05/05 03:15:31;;;;;;;;;16.25;10.75;;;;;13.42;68.68;101774.34;5039101;28;46478;-59
2022/05/05 03:17:57;;;;;;;;;16.50;14.25;;;;;13.38;68.76;101764.84;5039894;28;45423;-59
2022/05/05 03:20:23;;;;;;;;;20.50;14.75;;;;;13.35;68.74;101770.13;5044642;28;45340;-60
2022/05/05 03:22:48;;;;;;;;;16.75;16.00;;;;;13.33;69.32;101775.38;5038291;28;45330;-60
2022/05/05 03:25:13;;;;;;;;;16.50;14.50;;;;;13.30;69.64;101758.94;5039328;28;45663;-60
2022/05/05 03:27:39;;;;;;;;;25.00;16.00;;;;;13.28;69.56;101772.03;5039444;28;45221;-59
2022/05/05 03:30:05;;;;;;;;;19.25;19.00;;;;;13.27;70.33;101774.69;5038995;28;45234;-59
2022/05/05 03:32:32;;;;;;;;;15.25;14.25;;;;;13.29;69.34;101772.88;5036939;28;45372;-59
2022/05/05 03:34:58;;;;;;;;;21.25;13.25;;;;;13.31;69.15;101779.78;5035299;28;48363;-59
2022/05/05 03:37:27;;;;;;;;;21.25;15.50;;;;;13.35;69.60;101780.56;5035614;28;45914;-59
2022/05/05 03:39:52;;;;;;;;;16.25;13.00;;;;;13.33;69.96;101783.22;5036893;28;45516;-59
2022/05/05 03:42:18;;;;;;;;;17.25;14.00;;;;;13.40;69.77;101783.94;5043704;28;45585;-59
2022/05/05 03:44:43;;;;;;;;;19.50;16.50;;;;;13.46;69.51;101778.59;5040546;28;46171;-59
2022/05/05 03:47:08;;;;;;;;;18.50;15.00;;;;;13.51;69.41;101779.34;5038452;28;45244;-59
2022/05/05 03:49:34;;;;;;;;;19.25;15.00;;;;;13.52;69.56;101775.84;5039401;28;45297;-59
2022/05/05 03:51:59;;;;;;;;;21.00;17.50;;;;;13.50;69.37;101775.00;5037845;28;45453;-59
2022/05/05 03:54:25;;;;;;;;;24.50;16.75;;;;;13.49;70.91;101773.28;5038831;28;45363;-59
2022/05/05 03:56:50;;;;;;;;;22.25;15.50;;;;;13.48;70.02;101782.03;5038865;28;45162;-59
2022/05/05 03:59:15;;;;;;;;;21.50;18.25;;;;;13.46;70.61;101773.38;5040521;28;45394;-59
2022/05/05 04:01:41;;;;;;;;;22.25;15.75;;;;;13.51;70.00;101781.09;5042238;28;45474;-59
2022/05/05 04:04:06;;;;;;;;;21.00;17.50;;;;;13.52;69.45;101775.84;5041820;28;45198;-59
2022/05/05 04:06:32;;;;;;;;;21.75;16.25;;;;;13.53;70.40;101782.78;5042591;28;45358;-59
2022/05/05 04:08:58;;;;;;;;;18.50;15.25;;;;;13.48;69.72;101768.13;5042357;28;45265;-59
2022/05/05 04:11:24;;;;;;;;;23.75;19.00;;;;;13.59;70.48;101790.47;5042602;28;45340;-59
2022/05/05 04:13:50;;;;;;;;;18.25;14.25;;;;;13.58;69.47;101788.75;5041635;28;46985;-60
2022/05/05 04:16:15;;;;;;;;;20.25;12.75;;;;;13.58;70.01;101786.13;5042183;28;45347;-59
2022/05/05 04:18:41;;;;;;;;;20.00;16.00;;;;;13.62;69.97;101790.41;5047748;28;45318;-60
2022/05/05 04:21:07;;;;;;;;;17.75;14.75;;;;;13.63;69.79;101792.13;5042357;28;45394;-60
2022/05/05 04:23:33;;;;;;;;;23.00;20.25;;;;;13.65;69.94;101799.94;5042037;28;46314;-60
2022/05/05 04:25:59;;;;;;;;;22.00;16.25;;;;;13.67;70.67;101803.34;5040972;28;45377;-60
2022/05/05 04:28:25;;;;;;;;;18.75;13.50;;;;;13.67;70.06;101801.59;5040937;28;45218;-60
2022/05/05 04:30:51;;;;;;;;;17.50;13.00;;;;;13.65;70.07;101795.56;5042474;28;45320;-59
2022/05/05 04:33:16;;;;;;;;;16.75;13.50;;;;;13.64;70.62;101800.81;5041534;28;46195;-59
2022/05/05 04:35:42;;;;;;;;;19.00;16.00;;;;;13.56;70.32;101802.72;5039882;28;45360;-59
2022/05/05 04:38:10;;;;;;;;;20.25;16.00;;;;;13.51;70.80;101805.44;5041305;28;45264;-60
2022/05/05 04:40:36;;;;;;;;;15.25;13.75;;;;;13.47;71.70;101811.66;5041833;28;45425;-60
2022/05/05 04:43:01;;;;;;;;;21.00;18.50;;;;;13.42;71.45;101810.03;5047641;28;45563;-60
2022/05/05 04:45:27;;;;;;;;;20.00;16.75;;;;;13.42;71.29;101816.13;5041148;28;45311;-60
2022/05/05 04:47:52;;;;;;;;;23.50;19.00;;;;;13.38;72.95;101806.59;5041373;28;45463;-60
2022/05/05 04:50:18;;;;;;;;;22.00;18.50;;;;;13.32;72.84;101820.66;5040267;28;45487;-60
2022/05/05 04:52:43;;;;;;;;;21.00;14.50;;;;;13.31;72.45;101812.88;5041702;28;46245;-60
2022/05/05 04:55:09;;;;;;;;;20.25;17.25;;;;;13.30;72.88;101813.75;5041535;28;45229;-60
2022/05/05 04:57:36;;;;;;;;;26.50;18.50;;;;;13.28;72.99;101819.03;5041631;28;45209;-60
2022/05/05 05:00:03;;;;;;;;;25.75;18.50;;;;;13.31;73.06;101824.16;5041510;28;45667;-61
2022/05/05 05:02:29;;;;;;;;;18.00;13.50;;;;;13.25;74.14;101821.69;5039655;28;46151;-60
2022/05/05 05:04:54;;;;;;;;;26.25;18.00;;;;;13.24;73.17;101822.59;5041558;28;45498;-60
2022/05/05 05:07:19;;;;;;;;;23.75;21.75;;;;;13.27;73.63;101822.53;5041499;28;45275;-60
2022/05/05 05:09:45;;;;;;;;;24.25;19.00;;;;;13.33;72.77;101830.22;5047382;28;45320;-60
2022/05/05 05:12:10;;;;;;;;;23.00;18.00;;;;;13.41;72.44;101827.44;5046181;28;45577;-60
2022/05/05 05:14:35;;;;;;;;;29.00;21.75;;;;;13.49;72.65;101838.59;5041034;28;45276;-60
2022/05/05 05:17:01;;;;;;;;;27.00;23.25;;;;;13.55;72.38;101833.22;5040683;28;45566;-61
2022/05/05 05:19:27;;;;;;;;;28.75;21.00;;;;;13.58;72.61;101837.50;5046087;28;45577;-61
2022/05/05 05:21:52;;;;;;;;;24.50;19.25;;;;;13.62;72.37;101837.44;5040753;28;46198;-61
2022/05/05 05:24:18;;;;;;;;;24.75;22.50;;;;;13.66;72.45;101838.22;5039787;28;45364;-61
2022/05/05 05:26:43;;;;;;;;;22.25;19.00;;;;;13.69;73.01;101843.34;5039492;28;45317;-59
2022/05/05 05:29:09;;;;;;;;;28.50;21.75;;;;;13.65;72.87;101845.19;5039443;28;45888;-59
2022/05/05 05:31:34;;;;;;;;;24.00;21.00;;;;;13.70;72.46;101842.47;5040176;28;46362;-59
2022/05/05 05:33:59;;;;;;;;;28.50;22.75;;;;;13.73;72.48;101845.00;5040739;28;45410;-60
2022/05/05 05:36:25;;;;;;;;;33.00;24.00;;;;;13.73;72.55;101845.00;5040407;28;45217;-61
2022/05/05 05:38:51;;;;;;;;;22.25;18.25;;;;;13.76;73.71;101850.16;5040874;28;45236;-60
2022/05/05 05:41:16;;;;;;;;;31.75;24.75;;;;;13.70;73.05;101853.78;5038685;28;47252;-60
2022/05/05 05:43:41;;;;;;;;;27.25;23.50;;;;;13.68;73.78;101844.25;5045968;28;45467;-60
2022/05/05 05:46:07;;;;;;;;;25.50;22.50;;;;;13.67;73.25;101848.63;5038720;28;45423;-60
2022/05/05 05:48:32;;;;;;;;;29.75;23.50;;;;;13.72;74.29;101853.75;5039928;28;45280;-60
2022/05/05 05:50:58;;;;;;;;;22.00;19.00;;;;;13.75;73.34;101856.28;5039504;28;45661;-60
2022/05/05 05:53:23;;;;;;;;;23.25;16.75;;;;;13.83;73.35;101856.13;5039702;28;45415;-60
2022/05/05 05:55:48;;;;;;;;;29.50;22.00;;;;;13.92;72.86;101854.13;5039107;28;45710;-60
2022/05/05 05:58:14;;;;;;;;;31.75;26.00;;;;;13.96;73.00;101854.91;5040055;28;45541;-61
2022/05/05 06:00:39;;;;;;;;;28.25;25.75;;;;;14.02;72.62;101853.94;5040521;28;45521;-60
2022/05/05 06:05:49;;;;;;;;;24.75;23.25;;;;;14.10;73.14;101857.22;5041126;28;45473;-60
2022/05/05 06:08:14;;;;;;;;;28.00;22.00;;;;;14.09;72.54;101860.72;5050943;28;45501;-60
2022/05/05 06:10:40;;;;;;;;;34.25;27.75;;;;;14.13;73.00;101865.84;5039842;28;45974;-59
2022/05/05 06:13:06;;;;;;;;;35.00;26.75;;;;;14.11;73.26;101857.16;5039887;28;45351;-60
2022/05/05 06:15:32;;;;;;;;;33.50;27.25;;;;;14.11;73.54;101864.16;5039476;28;45375;-60
2022/05/05 06:17:57;;;;;;;;;34.75;25.25;;;;;14.12;73.22;101866.72;5043258;28;45507;-60
2022/05/05 06:20:22;;;;;;;;;29.00;24.00;;;;;14.17;72.68;101859.63;5046385;28;45521;-59
2022/05/05 06:22:50;;;;;;;;;37.75;24.75;;;;;14.25;72.77;101869.91;5047752;28;45373;-59
2022/05/05 06:25:16;;;;;;;;;30.50;22.75;;;;;14.26;73.23;101871.63;5046437;28;45490;-60
2022/05/05 06:27:41;;;;;;;;;30.00;24.25;;;;;14.24;73.43;101871.69;5047279;28;45513;-60
2022/05/05 06:30:10;;;;;;;;;34.25;24.00;;;;;14.20;73.43;101869.16;5046849;28;45593;-60
2022/05/05 06:32:36;;;;;;;;;34.75;24.25;;;;;14.20;73.59;101875.22;5051262;28;45483;-59
2022/05/05 06:35:01;;;;;;;;;29.00;24.50;;;;;14.22;73.41;101868.25;5042024;28;45288;-59
2022/05/05 06:37:26;;;;;;;;;42.00;29.50;;;;;14.25;74.62;101876.00;5038412;28;45312;-61
2022/05/05 06:39:52;;;;;;;;;36.00;31.75;;;;;14.17;75.11;101877.06;5039488;28;45464;-60
2022/05/05 06:42:18;;;;;;;;;42.75;33.00;;;;;14.15;74.85;101882.34;5041897;28;45467;-60
2022/05/05 06:44:43;;;;;;;;;39.25;33.00;;;;;14.13;74.62;101884.13;5042773;28;45454;-59
2022/05/05 06:47:09;;;;;;;;;48.75;39.50;;;;;14.19;74.56;101890.97;5039518;28;45552;-60
2022/05/05 06:49:34;;;;;;;;;46.75;37.00;;;;;14.24;74.75;101892.59;5039496;28;46635;-59
2022/05/05 06:52:00;;;;;;;;;53.25;38.00;;;;;14.36;74.23;101890.56;5039472;28;45557;-60
2022/05/05 06:54:26;;;;;;;;;27.75;21.25;;;;;14.44;73.91;101883.44;5040057;28;45219;-60
2022/05/05 06:56:52;;;;;;;;;41.75;32.00;;;;;14.46;74.18;101892.94;5039587;28;45514;-60
2022/05/05 06:59:17;;;;;;;;;35.00;25.75;;;;;14.44;73.90;101886.03;5039145;28;46221;-59
2022/05/05 07:01:52;;;;;;;;;32.25;27.50;;;;;14.51;74.29;101893.69;5039281;28;45289;-61
2022/05/05 07:07:06;;;;;;;;;38.00;29.50;;;;;14.59;73.32;101898.72;5039659;28;45346;-60
2022/05/05 07:12:16;;;;;;;;;41.00;31.50;;;;;14.63;73.57;101900.38;5038975;28;45298;-58
2022/05/05 07:14:43;;;;;;;;;39.25;31.50;;;;;14.64;73.34;101907.31;5037602;28;45442;-58
2022/05/05 07:17:09;;;;;;;;;34.75;29.00;;;;;14.62;74.31;101903.91;5038792;28;45238;-58
2022/05/05 07:19:34;;;;;;;;;36.25;26.75;;;;;14.59;74.23;101909.19;5043989;28;46193;-58
2022/05/05 07:21:59;;;;;;;;;33.75;29.50;;;;;14.64;73.84;101909.94;5039168;28;45243;-58
2022/05/05 07:24:25;;;;;;;;;35.00;30.50;;;;;14.71;73.54;101908.00;5039633;28;45297;-58
2022/05/05 07:26:50;;;;;;;;;37.75;28.75;;;;;14.80;73.74;101908.63;5037520;28;45285;-59
2022/05/05 07:29:16;;;;;;;;;31.25;25.75;;;;;14.82;72.99;101904.22;5038834;28;45304;-59
2022/05/05 07:31:41;;;;;;;;;34.25;27.00;;;;;14.89;73.04;101918.88;5038622;28;45524;-60
2022/05/05 07:34:07;;;;;;;;;26.00;22.25;;;;;14.83;73.15;101895.47;5040657;28;45352;-60
2022/05/05 07:36:32;;;;;;;;;34.00;27.50;;;;;15.03;72.92;101917.66;5042498;28;45394;-59
2022/05/05 07:38:58;;;;;;;;;39.50;30.00;;;;;15.19;72.50;101918.91;5041289;28;45621;-59
2022/05/05 07:41:23;;;;;;;;;31.25;27.75;;;;;15.38;72.10;101924.50;5042290;28;45273;-59
2022/05/05 07:43:50;;;;;;;;;32.25;26.75;;;;;15.52;71.25;101925.81;5048804;28;45501;-60
2022/05/05 07:46:17;;;;;;;;;34.75;28.25;;;;;15.66;71.02;101924.59;5041959;28;45302;-60
2022/05/05 07:48:43;;;;;;;;;43.00;28.75;;;;;15.83;70.19;101930.22;5042397;28;45398;-60
2022/05/05 07:51:09;;;;;;;;;25.25;24.00;;;;;15.86;69.18;101926.63;5042238;28;45271;-60
2022/05/05 07:53:35;;;;;;;;;29.50;26.50;;;;;15.83;68.87;101930.22;5041268;28;45251;-60
2022/05/05 07:56:00;;;;;;;;;33.25;22.75;;;;;15.91;69.37;101927.34;5041755;28;45399;-60
2022/05/05 07:58:25;;;;;;;;;30.75;25.00;;;;;15.98;68.64;101936.72;5041767;28;46409;-60
2022/05/05 08:00:51;;;;;;;;;25.25;21.25;;;;;15.97;67.73;101930.63;5054965;28;45235;-60
2022/05/05 08:03:16;;;;;;;;;32.25;25.50;;;;;15.99;67.65;101934.06;5041320;28;45453;-59
2022/05/05 08:05:42;;;;;;;;;35.50;29.00;;;;;16.05;68.04;101935.66;5042354;28;45332;-59
2022/05/05 08:08:07;;;;;;;;;31.50;28.75;;;;;16.25;67.98;101935.88;5040943;28;46452;-59
2022/05/05 08:10:33;;;;;;;;;32.00;26.50;;;;;16.45;67.40;101929.97;5024232;28;45346;-59
2022/05/05 08:12:58;;;;;;;;;30.75;26.75;;;;;16.55;67.23;101934.00;5042172;28;45233;-59
2022/05/05 08:15:23;;;;;;;;;35.75;28.25;;;;;16.71;67.02;101934.38;5042024;28;45463;-59
2022/05/05 08:17:49;;;;;;;;;26.50;24.75;;;;;16.75;66.18;101937.75;5041812;28;45411;-59
2022/05/05 08:20:15;;;;;;;;;27.00;22.75;;;;;16.74;65.80;101934.28;5047442;28;45398;-60
2022/05/05 08:22:41;;;;;;;;;31.00;22.50;;;;;16.82;65.50;101936.63;5042623;28;45304;-59
2022/05/05 08:30:36;;;;;;;;;18.00;17.25;;;;;17.07;64.62;101948.03;5041850;28;45350;-60
2022/05/05 08:33:02;;;;;;;;;26.00;20.75;;;;;17.15;63.51;101939.84;5042117;28;45343;-60
2022/05/05 08:35:27;;;;;;;;;24.00;18.50;;;;;17.17;63.60;101944.13;5041497;28;45331;-60
2022/05/05 08:37:54;;;;;;;;;23.75;20.75;;;;;17.33;62.93;101931.31;5041879;28;45477;-60
2022/05/05 08:40:23;;;;;;;;;22.25;21.00;;;;;17.53;61.24;101935.84;5041625;28;45461;-61
2022/05/05 08:42:49;;;;;;;;;25.75;23.00;;;;;17.66;62.55;101944.13;5052748;28;45245;-61
2022/05/05 08:45:15;;;;;;;;;25.75;20.00;;;;;17.82;62.68;101940.00;5041076;28;45493;-60
2022/05/05 08:47:44;;;;;;;;;19.75;18.25;;;;;18.03;61.04;101946.25;5052647;28;46367;-61
2022/05/05 08:50:10;;;;;;;;;23.25;19.75;;;;;18.19;60.36;101942.91;5042958;28;45399;-59
2022/05/05 08:52:43;;;;;;;;;22.50;20.25;;;;;18.30;60.11;101945.13;5041438;28;45316;-59
2022/05/05 08:55:14;;;;;;;;;16.75;16.75;;;;;18.37;58.35;101951.84;5041425;28;45537;-59
2022/05/05 08:57:40;;;;;;;;;20.00;14.00;;;;;18.43;57.67;101953.41;5041265;28;45438;-59
2022/05/05 09:00:06;;;;;;;;;17.25;15.00;;;;;18.43;57.51;101956.88;5041223;28;45423;-59
2022/05/05 09:02:31;;;;;;;;;18.75;14.50;;;;;18.39;57.90;101957.03;5041183;28;45277;-59
2022/05/05 09:04:57;;;;;;;;;15.75;15.75;;;;;18.36;58.26;101958.03;5042206;28;45327;-59
2022/05/05 09:07:43;;;;;;;;;16.75;15.00;;;;;18.37;56.25;101958.88;5039676;28;47016;-59
2022/05/05 09:10:09;;;;;;;;;17.00;16.50;;;;;18.34;57.17;101953.75;5041135;28;45225;-59
2022/05/05 09:12:35;;;;;;;;;14.25;11.25;;;;;18.25;56.69;101965.50;5041434;28;45256;-60
2022/05/05 09:15:07;;;;;;;;;19.25;16.00;;;;;18.27;56.58;101954.94;5041045;28;45233;-60
2022/05/05 09:17:35;;;;;;;;;18.00;17.75;;;;;18.43;56.89;101953.41;5040733;28;46417;-60
2022/05/05 09:20:03;;;;;;;;;23.25;17.75;;;;;18.69;56.13;101952.34;5046476;28;45713;-60
2022/05/05 09:22:29;;;;;;;;;20.00;17.25;;;;;18.78;55.12;101952.78;5041285;28;45266;-60
2022/05/05 09:24:58;;;;;;;;;22.25;19.00;;;;;18.82;54.07;101956.16;5041170;28;45328;-61
2022/05/05 09:27:32;;;;;;;;;18.25;15.00;;;;;18.84;56.11;101962.22;5040626;28;45233;-60
2022/05/05 09:30:06;;;;;;;;;12.50;11.00;;;;;18.90;54.55;101950.56;5040413;28;45339;-61
2022/05/05 09:32:36;;;;;;;;;15.00;13.50;;;;;19.02;54.46;101960.56;5041125;28;45367;-61
2022/05/05 09:35:09;;;;;;;;;13.25;10.50;;;;;19.14;53.25;101945.09;5040731;28;45785;-60
2022/05/05 09:37:35;;;;;;;;;8.25;8.00;;;;;19.14;51.78;101955.63;5040988;28;45440;-60
2022/05/05 09:40:02;;;;;;;;;8.00;7.00;;;;;19.06;50.72;101955.13;5040110;28;45312;-60
2022/05/05 09:42:42;;;;;;;;;9.00;8.50;;;;;19.06;50.85;101949.00;5044450;28;45436;-60
2022/05/05 09:45:18;;;;;;;;;5.50;5.50;;;;;19.02;51.33;101952.66;5040566;28;45411;-60
2022/05/05 09:47:49;;;;;;;;;7.50;7.50;;;;;19.00;49.91;101957.13;5040379;28;46212;-60
2022/05/05 09:50:15;;;;;;;;;6.25;6.00;;;;;19.02;50.65;101964.09;5040582;28;45784;-61
2022/05/05 09:58:19;;;;;;;;;10.75;8.00;;;;;19.52;50.24;101949.56;5039476;28;45900;-61
2022/05/05 10:06:25;;;;;;;;;11.25;7.00;;;;;19.90;47.74;101950.47;5047078;28;45463;-60
2022/05/05 10:08:53;;;;;;;;;12.50;9.50;;;;;19.96;48.30;101951.03;5045682;28;46052;-61
2022/05/05 10:11:19;;;;;;;;;10.50;9.00;;;;;19.90;46.26;101953.09;5047831;28;45324;-61
2022/05/05 10:13:45;;;;;;;;;9.00;8.00;;;;;19.75;46.69;101960.81;5047773;28;45368;-61
2022/05/05 10:16:14;;;;;;;;;9.25;8.00;;;;;19.65;48.31;101956.03;5045257;28;45875;-61
2022/05/05 10:18:41;;;;;;;;;8.75;7.00;;;;;19.58;46.78;101951.94;5046202;28;47022;-61
2022/05/05 10:21:08;;;;;;;;;8.50;8.50;;;;;19.45;46.80;101954.28;5048634;28;45460;-64
2022/05/05 10:23:52;;;;;;;;;10.00;7.50;;;;;19.39;46.97;101962.44;5046863;28;45764;-60
2022/05/05 10:26:23;;;;;;;;;7.00;7.00;;;;;19.37;47.03;101956.38;5049411;28;45478;-61
2022/05/05 10:28:49;;;;;;;;;7.25;6.50;;;;;19.44;46.75;101955.19;5043843;28;46437;-61
2022/05/05 10:31:29;;;;;;;;;9.25;8.00;;;;;19.40;45.93;101965.00;5047270;28;45405;-61
2022/05/05 10:34:04;;;;;;;;;9.00;6.75;;;;;19.34;46.36;101961.78;5046102;28;45383;-60
2022/05/05 10:36:31;;;;;;;;;7.50;6.00;;;;;19.13;46.34;101956.56;5048045;28;45444;-61
2022/05/05 10:38:57;;;;;;;;;8.25;8.00;;;;;18.94;46.55;101955.63;5047780;28;46435;-61
2022/05/05 10:41:38;;;;;;;;;11.00;7.75;;;;;18.91;48.32;101974.22;5046854;28;45588;-61
2022/05/05 10:44:23;;;;;;;;;5.75;4.25;;;;;18.88;47.31;101955.91;5048526;28;45569;-59
2022/05/05 10:46:59;;;;;;;;;7.00;6.00;;;;;18.89;47.27;101962.03;5048572;28;45557;-60
2022/05/05 10:49:33;;;;;;;;;9.00;8.00;;;;;18.93;47.73;101953.91;5047503;28;46236;-59
2022/05/05 10:52:10;;;;;;;;;9.75;8.50;;;;;19.14;48.22;101953.00;5049008;28;45509;-60
2022/05/05 10:54:36;;;;;;;;;10.25;8.50;;;;;19.37;47.81;101954.59;5046717;28;45220;-61
2022/05/05 10:57:26;;;;;;;;;9.00;8.25;;;;;19.61;47.17;101947.38;5049138;28;45561;-62
2022/05/05 11:00:07;;;;;;;;;9.25;8.00;;;;;19.77;46.49;101947.53;5063282;28;47513;-59
2022/05/05 11:02:34;;;;;;;;;10.25;8.00;;;;;19.80;46.48;101942.13;5047377;28;45547;-60
2022/05/05 11:05:28;;;;;;;;;9.25;8.00;;;;;19.74;45.10;101945.91;5048831;28;45398;-63
2022/05/05 11:08:14;;;;;;;;;6.75;5.50;;;;;19.66;46.17;101945.41;5048248;28;45543;-61
2022/05/05 11:13:38;;;;;;;;;7.00;7.00;;;;;19.51;45.70;101967.16;5046993;28;45447;-65
2022/05/05 11:22:15;;;;;;;;;6.25;6.25;;;;;19.43;46.08;101953.50;5049209;28;45372;-60
2022/05/05 11:24:45;;;;;;;;;8.50;8.00;;;;;19.48;45.26;101950.63;5048205;28;45314;-59
2022/05/05 11:27:20;;;;;;;;;8.00;6.00;;;;;19.34;45.21;101945.97;5044852;28;45438;-59
2022/05/05 11:29:50;;;;;;;;;7.75;6.75;;;;;19.27;46.07;101949.81;5043285;28;45284;-59
2022/05/05 11:32:16;;;;;;;;;7.00;6.00;;;;;19.19;45.39;101954.56;5046988;28;47757;-60
2022/05/05 11:34:45;;;;;;;;;6.00;6.00;;;;;19.08;45.12;101942.72;5047005;28;45291;-62
2022/05/05 11:37:11;;;;;;;;;3.50;3.50;;;;;19.02;45.34;101942.13;5045803;28;45437;-62
2022/05/05 11:39:37;;;;;;;;;7.25;5.50;;;;;19.02;45.29;101955.28;5045011;28;45375;-64
2022/05/05 11:42:05;;;;;;;;;6.25;3.50;;;;;19.04;45.61;101945.56;5047532;28;46208;-61
2022/05/05 11:44:32;;;;;;;;;5.75;5.00;;;;;19.05;44.69;101956.03;5041911;28;45737;-60
2022/05/05 11:47:12;;;;;;;;;10.00;7.75;;;;;19.03;44.55;101947.34;5043208;28;45371;-67
2022/05/05 11:49:39;;;;;;;;;5.00;5.00;;;;;19.06;45.02;101949.84;5042943;28;45463;-62
2022/05/05 11:52:05;;;;;;;;;5.00;5.00;;;;;19.04;44.77;101935.88;5050236;28;46592;-60
2022/05/05 11:54:32;;;;;;;;;7.50;6.50;;;;;19.00;45.39;101942.19;5038499;28;45168;-61
2022/05/05 11:56:59;;;;;;;;;6.50;5.75;;;;;19.00;45.63;101947.44;5038791;28;45347;-64
2022/05/05 12:02:16;;;;;;;;;9.00;5.00;;;;;19.00;45.84;101946.59;5038052;28;45458;-64